MTN001 KLAS-KBZN
Flight info
| Callsign | MTN001 |
|---|---|
| Flight time | 1h 42m |
| Altitude | 33000 |
| Route | RATPK3 FRNCK WINEN Q842 PICHO/N0448F380 Q842 PATIO MLD/N0450F390 SABAT LOSST1 |
| Aircraft | CRJ7/M-SDFGIRWY/S |
Departure
| Time | 2026-05-05 13:29 |
|---|---|
| Airport | Harry Reid International Airport (KLAS) |
Arrival
| Time | 2026-05-05 15:12 |
|---|---|
| Airport | Bozeman Yellowstone International Airport (KBZN) |
| Time | Latitude | Longitude | Altitude | Speed | Heading |
|---|---|---|---|---|---|
| 2026-05-05 12:54 | 36.08050 | -115.13651 | 2186 ft | 0 kts | 44° |
| 2026-05-05 12:55 | 36.07996 | -115.13573 | 2192 ft | 0 kts | 42° |
| 2026-05-05 13:14 | 36.07991 | -115.13578 | 2186 ft | 4 kts | 43° |
| 2026-05-05 13:14 | 36.07972 | -115.13602 | 2190 ft | 4 kts | 49° |
| 2026-05-05 13:14 | 36.07957 | -115.13629 | 2188 ft | 4 kts | 63° |
| 2026-05-05 13:14 | 36.07952 | -115.13658 | 2186 ft | 4 kts | 105° |
| 2026-05-05 13:15 | 36.07957 | -115.13669 | 2186 ft | 1 kts | 135° |
| 2026-05-05 13:22 | 36.07943 | -115.13651 | 2189 ft | 4 kts | 135° |
| 2026-05-05 13:22 | 36.07923 | -115.13627 | 2187 ft | 4 kts | 135° |
| 2026-05-05 13:22 | 36.07902 | -115.13602 | 2186 ft | 4 kts | 136° |
| 2026-05-05 13:22 | 36.07880 | -115.13576 | 2186 ft | 4 kts | 136° |
| 2026-05-05 13:23 | 36.07857 | -115.13549 | 2190 ft | 5 kts | 136° |
| 2026-05-05 13:23 | 36.07834 | -115.13510 | 2187 ft | 8 kts | 111° |
| 2026-05-05 13:23 | 36.07827 | -115.13415 | 2187 ft | 14 kts | 90° |
| 2026-05-05 13:23 | 36.07827 | -115.13286 | 2189 ft | 15 kts | 90° |
| 2026-05-05 13:24 | 36.07828 | -115.13154 | 2188 ft | 15 kts | 89° |
| 2026-05-05 13:24 | 36.07829 | -115.13023 | 2189 ft | 15 kts | 89° |
| 2026-05-05 13:24 | 36.07829 | -115.12893 | 2186 ft | 15 kts | 90° |
| 2026-05-05 13:24 | 36.07829 | -115.12763 | 2186 ft | 15 kts | 90° |
| 2026-05-05 13:25 | 36.07829 | -115.12633 | 2186 ft | 15 kts | 90° |
| 2026-05-05 13:25 | 36.07829 | -115.12504 | 2187 ft | 15 kts | 90° |
| 2026-05-05 13:25 | 36.07828 | -115.12378 | 2188 ft | 14 kts | 90° |
| 2026-05-05 13:25 | 36.07821 | -115.12263 | 2186 ft | 11 kts | 114° |
| 2026-05-05 13:26 | 36.07779 | -115.12187 | 2186 ft | 11 kts | 127° |
| 2026-05-05 13:26 | 36.07758 | -115.12156 | 2186 ft | 0 kts | 133° |
| 2026-05-05 13:27 | 36.07740 | -115.12138 | 2187 ft | 9 kts | 150° |
| 2026-05-05 13:28 | 36.07686 | -115.12124 | 2190 ft | 6 kts | 179° |
| 2026-05-05 13:28 | 36.07651 | -115.12139 | 2188 ft | 9 kts | 234° |
| 2026-05-05 13:28 | 36.07641 | -115.12440 | 2190 ft | 69 kts | 270° |
| 2026-05-05 13:28 | 36.07634 | -115.13324 | 2187 ft | 134 kts | 266° |
| 2026-05-05 13:29 | 36.07641 | -115.14644 | 2362 ft | 167 kts | 270° |
| 2026-05-05 13:29 | 36.07687 | -115.16111 | 2997 ft | 178 kts | 271° |
| 2026-05-05 13:29 | 36.07714 | -115.17651 | 3785 ft | 185 kts | 268° |
| 2026-05-05 13:29 | 36.07701 | -115.19294 | 4561 ft | 194 kts | 268° |
| 2026-05-05 13:30 | 36.07684 | -115.20973 | 5332 ft | 198 kts | 268° |
| 2026-05-05 13:30 | 36.07665 | -115.22684 | 5992 ft | 201 kts | 267° |
| 2026-05-05 13:30 | 36.07647 | -115.24426 | 6617 ft | 204 kts | 268° |
| 2026-05-05 13:30 | 36.07641 | -115.26193 | 7251 ft | 207 kts | 271° |
| 2026-05-05 13:31 | 36.08156 | -115.27843 | 7815 ft | 213 kts | 315° |
| 2026-05-05 13:31 | 36.09434 | -115.28790 | 8338 ft | 222 kts | 339° |
| 2026-05-05 13:31 | 36.11002 | -115.29338 | 8541 ft | 246 kts | 347° |
| 2026-05-05 13:31 | 36.12755 | -115.29760 | 8854 ft | 265 kts | 351° |
| 2026-05-05 13:32 | 36.14627 | -115.29599 | 9215 ft | 280 kts | 22° |
| 2026-05-05 13:32 | 36.16196 | -115.28200 | 9759 ft | 286 kts | 49° |
| 2026-05-05 13:32 | 36.17359 | -115.26197 | 10387 ft | 288 kts | 60° |
| 2026-05-05 13:32 | 36.18211 | -115.23946 | 11025 ft | 290 kts | 71° |
| 2026-05-05 13:33 | 36.18880 | -115.21570 | 11678 ft | 292 kts | 73° |
| 2026-05-05 13:33 | 36.19526 | -115.19166 | 12322 ft | 295 kts | 76° |
| 2026-05-05 13:33 | 36.19794 | -115.16680 | 12946 ft | 297 kts | 90° |
| 2026-05-05 13:33 | 36.19786 | -115.14116 | 13585 ft | 300 kts | 93° |
| 2026-05-05 13:34 | 36.19712 | -115.11523 | 14159 ft | 303 kts | 94° |
| 2026-05-05 13:34 | 36.19632 | -115.08900 | 14669 ft | 306 kts | 93° |
| 2026-05-05 13:34 | 36.19588 | -115.06239 | 15216 ft | 309 kts | 92° |
| 2026-05-05 13:34 | 36.19586 | -115.03565 | 15755 ft | 313 kts | 91° |
| 2026-05-05 13:35 | 36.19582 | -115.00861 | 16287 ft | 316 kts | 91° |
| 2026-05-05 13:35 | 36.19582 | -114.98099 | 16524 ft | 330 kts | 91° |
| 2026-05-05 13:35 | 36.19581 | -114.95166 | 16532 ft | 350 kts | 91° |
| 2026-05-05 13:35 | 36.19581 | -114.92069 | 16601 ft | 368 kts | 91° |
| 2026-05-05 13:36 | 36.19791 | -114.88874 | 16947 ft | 377 kts | 75° |
| 2026-05-05 13:36 | 36.20903 | -114.85975 | 17440 ft | 381 kts | 57° |
| 2026-05-05 13:36 | 36.22521 | -114.83355 | 17934 ft | 384 kts | 50° |
| 2026-05-05 13:36 | 36.24285 | -114.80845 | 18382 ft | 388 kts | 48° |
| 2026-05-05 13:37 | 36.26080 | -114.78339 | 18812 ft | 391 kts | 49° |
| 2026-05-05 13:37 | 36.27874 | -114.75782 | 19230 ft | 394 kts | 50° |
| 2026-05-05 13:37 | 36.29632 | -114.73150 | 19638 ft | 397 kts | 51° |
| 2026-05-05 13:37 | 36.31387 | -114.70491 | 20043 ft | 400 kts | 51° |
| 2026-05-05 13:38 | 36.33145 | -114.67851 | 20425 ft | 403 kts | 51° |
| 2026-05-05 13:38 | 36.34927 | -114.65154 | 20802 ft | 406 kts | 51° |
| 2026-05-05 13:38 | 36.36745 | -114.62454 | 21183 ft | 409 kts | 47° |
| 2026-05-05 13:38 | 36.38844 | -114.60051 | 21550 ft | 412 kts | 39° |
| 2026-05-05 13:39 | 36.41144 | -114.57912 | 21911 ft | 415 kts | 36° |
| 2026-05-05 13:39 | 36.42702 | -114.56526 | 22146 ft | 416 kts | 36° |
| 2026-05-05 13:39 | 36.45859 | -114.53702 | 22610 ft | 420 kts | 36° |
| 2026-05-05 13:39 | 36.48204 | -114.51515 | 22943 ft | 423 kts | 38° |
| 2026-05-05 13:40 | 36.49750 | -114.50040 | 23161 ft | 424 kts | 37° |
| 2026-05-05 13:40 | 36.52107 | -114.47800 | 23473 ft | 427 kts | 38° |
| 2026-05-05 13:40 | 36.54474 | -114.45563 | 23750 ft | 429 kts | 36° |
| 2026-05-05 13:40 | 36.56943 | -114.43448 | 24016 ft | 431 kts | 32° |
| 2026-05-05 13:41 | 36.59512 | -114.41498 | 24279 ft | 433 kts | 30° |
| 2026-05-05 13:41 | 36.62116 | -114.39578 | 24541 ft | 435 kts | 30° |
| 2026-05-05 13:41 | 36.64723 | -114.37635 | 24794 ft | 437 kts | 31° |
| 2026-05-05 13:41 | 36.67289 | -114.35648 | 25039 ft | 439 kts | 32° |
| 2026-05-05 13:42 | 36.69896 | -114.33626 | 25281 ft | 441 kts | 32° |
| 2026-05-05 13:42 | 36.72512 | -114.31595 | 25516 ft | 443 kts | 32° |
| 2026-05-05 13:42 | 36.75130 | -114.29559 | 25750 ft | 445 kts | 32° |
| 2026-05-05 13:42 | 36.77774 | -114.27500 | 25989 ft | 447 kts | 32° |
| 2026-05-05 13:43 | 36.80418 | -114.25443 | 26212 ft | 449 kts | 32° |
| 2026-05-05 13:43 | 36.83073 | -114.23375 | 26432 ft | 451 kts | 32° |
| 2026-05-05 13:43 | 36.85704 | -114.21322 | 26651 ft | 452 kts | 32° |
| 2026-05-05 13:43 | 36.88378 | -114.19234 | 26857 ft | 454 kts | 32° |
| 2026-05-05 13:44 | 36.91063 | -114.17136 | 27072 ft | 456 kts | 32° |
| 2026-05-05 13:44 | 36.93757 | -114.15032 | 27269 ft | 458 kts | 32° |
| 2026-05-05 13:44 | 36.96462 | -114.12914 | 27475 ft | 459 kts | 32° |
| 2026-05-05 13:44 | 36.99178 | -114.10786 | 27669 ft | 461 kts | 32° |
| 2026-05-05 13:45 | 37.01901 | -114.08651 | 27865 ft | 462 kts | 32° |
| 2026-05-05 13:45 | 37.04634 | -114.06508 | 28049 ft | 464 kts | 32° |
| 2026-05-05 13:45 | 37.07374 | -114.04356 | 28276 ft | 464 kts | 32° |
| 2026-05-05 13:45 | 37.10109 | -114.02205 | 28520 ft | 464 kts | 32° |
| 2026-05-05 13:46 | 37.12842 | -114.00058 | 28772 ft | 464 kts | 32° |
| 2026-05-05 13:46 | 37.15581 | -113.97898 | 29029 ft | 464 kts | 32° |
| 2026-05-05 13:46 | 37.18317 | -113.95744 | 29251 ft | 464 kts | 32° |
| 2026-05-05 13:46 | 37.21016 | -113.93614 | 29493 ft | 464 kts | 32° |
| 2026-05-05 13:47 | 37.23751 | -113.91457 | 29741 ft | 463 kts | 32° |
| 2026-05-05 13:47 | 37.26481 | -113.89300 | 29951 ft | 463 kts | 32° |
| 2026-05-05 13:47 | 37.29209 | -113.87139 | 30133 ft | 463 kts | 32° |
| 2026-05-05 13:47 | 37.31941 | -113.84978 | 30297 ft | 464 kts | 32° |
| 2026-05-05 13:48 | 37.34673 | -113.82816 | 30472 ft | 464 kts | 32° |
| 2026-05-05 13:48 | 37.37403 | -113.80651 | 30636 ft | 464 kts | 32° |
| 2026-05-05 13:48 | 37.40134 | -113.78485 | 30802 ft | 464 kts | 32° |
| 2026-05-05 13:48 | 37.42840 | -113.76338 | 30975 ft | 465 kts | 32° |
| 2026-05-05 13:49 | 37.45576 | -113.74161 | 31139 ft | 465 kts | 32° |
| 2026-05-05 13:49 | 37.48315 | -113.71982 | 31301 ft | 465 kts | 32° |
| 2026-05-05 13:49 | 37.51051 | -113.69806 | 31482 ft | 465 kts | 32° |
| 2026-05-05 13:49 | 37.53787 | -113.67624 | 31640 ft | 465 kts | 32° |
| 2026-05-05 13:50 | 37.56531 | -113.65439 | 31818 ft | 465 kts | 32° |
| 2026-05-05 13:50 | 37.59268 | -113.63250 | 31973 ft | 465 kts | 32° |
| 2026-05-05 13:50 | 37.62003 | -113.61065 | 32146 ft | 465 kts | 32° |
| 2026-05-05 13:50 | 37.64740 | -113.58890 | 32299 ft | 465 kts | 31° |
| 2026-05-05 13:51 | 37.67601 | -113.57138 | 32440 ft | 463 kts | 19° |
| 2026-05-05 13:51 | 37.70650 | -113.55801 | 32614 ft | 462 kts | 17° |
| 2026-05-05 13:51 | 37.73729 | -113.54633 | 32781 ft | 461 kts | 13° |
| 2026-05-05 13:51 | 37.76875 | -113.53788 | 32855 ft | 462 kts | 8° |
| 2026-05-05 13:52 | 37.83269 | -113.52468 | 32901 ft | 468 kts | 8° |
| 2026-05-05 13:52 | 37.89677 | -113.50955 | 32910 ft | 474 kts | 9° |
| 2026-05-05 13:53 | 37.96086 | -113.48974 | 32913 ft | 476 kts | 17° |
| 2026-05-05 13:53 | 38.02328 | -113.46131 | 32910 ft | 477 kts | 20° |
| 2026-05-05 13:54 | 38.08581 | -113.43268 | 32904 ft | 478 kts | 18° |
| 2026-05-05 13:54 | 38.14887 | -113.40501 | 32902 ft | 479 kts | 19° |
| 2026-05-05 13:55 | 38.21160 | -113.37734 | 32900 ft | 480 kts | 19° |
| 2026-05-05 13:55 | 38.27472 | -113.34949 | 32902 ft | 480 kts | 19° |
| 2026-05-05 13:56 | 38.33793 | -113.32157 | 32908 ft | 481 kts | 19° |
| 2026-05-05 13:56 | 38.40081 | -113.29372 | 32907 ft | 481 kts | 19° |
| 2026-05-05 13:57 | 38.46404 | -113.26567 | 32912 ft | 480 kts | 19° |
| 2026-05-05 13:57 | 38.52727 | -113.23757 | 32913 ft | 480 kts | 20° |
| 2026-05-05 13:58 | 38.59047 | -113.20947 | 32909 ft | 480 kts | 20° |
| 2026-05-05 13:58 | 38.65353 | -113.18125 | 32891 ft | 480 kts | 20° |
| 2026-05-05 13:59 | 38.74768 | -113.13955 | 32865 ft | 478 kts | 19° |
| 2026-05-05 14:00 | 38.84201 | -113.09793 | 32857 ft | 477 kts | 20° |
| 2026-05-05 14:00 | 38.90470 | -113.06975 | 32851 ft | 477 kts | 20° |
| 2026-05-05 14:01 | 38.96728 | -113.04155 | 32850 ft | 476 kts | 20° |
| 2026-05-05 14:01 | 39.02978 | -113.01333 | 32849 ft | 476 kts | 20° |
| 2026-05-05 14:02 | 39.09180 | -112.98528 | 32846 ft | 475 kts | 20° |
| 2026-05-05 14:02 | 39.15411 | -112.95704 | 32847 ft | 475 kts | 20° |
| 2026-05-05 14:03 | 39.21639 | -112.92875 | 32841 ft | 474 kts | 20° |
| 2026-05-05 14:03 | 39.27853 | -112.90052 | 32857 ft | 473 kts | 20° |
| 2026-05-05 14:04 | 39.34054 | -112.87226 | 32875 ft | 472 kts | 20° |
| 2026-05-05 14:04 | 39.40244 | -112.84400 | 32875 ft | 471 kts | 20° |
| 2026-05-05 14:05 | 39.46424 | -112.81574 | 32877 ft | 470 kts | 20° |
| 2026-05-05 14:05 | 39.52583 | -112.78751 | 32876 ft | 469 kts | 20° |
| 2026-05-05 14:06 | 39.58720 | -112.75931 | 32870 ft | 467 kts | 20° |
| 2026-05-05 14:06 | 39.64845 | -112.73112 | 32863 ft | 466 kts | 20° |
| 2026-05-05 14:07 | 39.70912 | -112.70318 | 32846 ft | 464 kts | 20° |
| 2026-05-05 14:07 | 39.76998 | -112.67512 | 32851 ft | 463 kts | 20° |
| 2026-05-05 14:08 | 39.83068 | -112.64699 | 32848 ft | 462 kts | 20° |
| 2026-05-05 14:08 | 39.89127 | -112.61890 | 32847 ft | 461 kts | 20° |
| 2026-05-05 14:09 | 39.95223 | -112.59354 | 32852 ft | 460 kts | 11° |
| 2026-05-05 14:09 | 40.01522 | -112.58271 | 32855 ft | 459 kts | 5° |
| 2026-05-05 14:10 | 40.07903 | -112.57809 | 32865 ft | 458 kts | 1° |
| 2026-05-05 14:10 | 40.14282 | -112.57684 | 32867 ft | 458 kts | 1° |
| 2026-05-05 14:11 | 40.20642 | -112.57477 | 32872 ft | 457 kts | 2° |
| 2026-05-05 14:11 | 40.26962 | -112.57236 | 32862 ft | 456 kts | 2° |
| 2026-05-05 14:12 | 40.33302 | -112.56994 | 32858 ft | 456 kts | 2° |
| 2026-05-05 14:12 | 40.39638 | -112.56754 | 32853 ft | 455 kts | 2° |
| 2026-05-05 14:13 | 40.45959 | -112.56511 | 32863 ft | 454 kts | 2° |
| 2026-05-05 14:13 | 40.52279 | -112.56270 | 32870 ft | 454 kts | 2° |
| 2026-05-05 14:14 | 40.58588 | -112.56028 | 32875 ft | 453 kts | 2° |
| 2026-05-05 14:14 | 40.64896 | -112.55785 | 32873 ft | 453 kts | 2° |
| 2026-05-05 14:15 | 40.71148 | -112.55546 | 32858 ft | 452 kts | 2° |
| 2026-05-05 14:15 | 40.77435 | -112.55304 | 32843 ft | 451 kts | 2° |
| 2026-05-05 14:16 | 40.83712 | -112.55060 | 32822 ft | 451 kts | 2° |
| 2026-05-05 14:16 | 40.89975 | -112.54818 | 32798 ft | 450 kts | 2° |
| 2026-05-05 14:17 | 40.96225 | -112.54575 | 32780 ft | 449 kts | 2° |
| 2026-05-05 14:17 | 41.02476 | -112.54332 | 32779 ft | 448 kts | 2° |
| 2026-05-05 14:18 | 41.08705 | -112.54089 | 32772 ft | 447 kts | 2° |
| 2026-05-05 14:18 | 41.14924 | -112.53845 | 32770 ft | 447 kts | 2° |
| 2026-05-05 14:19 | 41.21134 | -112.53604 | 32770 ft | 446 kts | 2° |
| 2026-05-05 14:19 | 41.27333 | -112.53341 | 32770 ft | 445 kts | 3° |
| 2026-05-05 14:20 | 41.33475 | -112.52791 | 32766 ft | 444 kts | 4° |
| 2026-05-05 14:20 | 41.39644 | -112.52255 | 32772 ft | 444 kts | 3° |
| 2026-05-05 14:21 | 41.45803 | -112.51725 | 32771 ft | 443 kts | 4° |
| 2026-05-05 14:21 | 41.51955 | -112.51184 | 32782 ft | 442 kts | 3° |
| 2026-05-05 14:22 | 41.58096 | -112.50646 | 32785 ft | 442 kts | 3° |
| 2026-05-05 14:22 | 41.64230 | -112.50112 | 32777 ft | 441 kts | 4° |
| 2026-05-05 14:23 | 41.70354 | -112.49574 | 32777 ft | 440 kts | 3° |
| 2026-05-05 14:23 | 41.76430 | -112.49041 | 32779 ft | 440 kts | 3° |
| 2026-05-05 14:24 | 41.82530 | -112.48503 | 32788 ft | 439 kts | 4° |
| 2026-05-05 14:24 | 41.88623 | -112.47966 | 32790 ft | 438 kts | 4° |
| 2026-05-05 14:25 | 41.94705 | -112.47425 | 32792 ft | 437 kts | 4° |
| 2026-05-05 14:25 | 42.00786 | -112.46887 | 32808 ft | 437 kts | 4° |
| 2026-05-05 14:26 | 42.06854 | -112.46348 | 32809 ft | 436 kts | 4° |
| 2026-05-05 14:26 | 42.12874 | -112.45815 | 32810 ft | 435 kts | 4° |
| 2026-05-05 14:27 | 42.18905 | -112.45122 | 32808 ft | 434 kts | 10° |
| 2026-05-05 14:27 | 42.24786 | -112.43244 | 32831 ft | 434 kts | 16° |
| 2026-05-05 14:28 | 42.30531 | -112.40724 | 32833 ft | 433 kts | 18° |
| 2026-05-05 14:28 | 42.35300 | -112.38632 | 32826 ft | 433 kts | 17° |
| 2026-05-05 14:29 | 42.41982 | -112.35809 | 32834 ft | 432 kts | 17° |
| 2026-05-05 14:29 | 42.46784 | -112.33779 | 32837 ft | 431 kts | 17° |
| 2026-05-05 14:30 | 42.52471 | -112.31369 | 32835 ft | 431 kts | 17° |
| 2026-05-05 14:30 | 42.58192 | -112.28942 | 32843 ft | 430 kts | 17° |
| 2026-05-05 14:31 | 42.63895 | -112.26514 | 32838 ft | 429 kts | 17° |
| 2026-05-05 14:31 | 42.69591 | -112.24094 | 32860 ft | 428 kts | 17° |
| 2026-05-05 14:32 | 42.75223 | -112.21686 | 32864 ft | 426 kts | 17° |
| 2026-05-05 14:32 | 42.80883 | -112.19263 | 32871 ft | 425 kts | 16° |
| 2026-05-05 14:33 | 42.86520 | -112.16848 | 32868 ft | 423 kts | 16° |
| 2026-05-05 14:33 | 42.92129 | -112.14436 | 32867 ft | 422 kts | 16° |
| 2026-05-05 14:34 | 42.97690 | -112.12034 | 32878 ft | 421 kts | 16° |
| 2026-05-05 14:34 | 43.03271 | -112.09639 | 32881 ft | 420 kts | 16° |
| 2026-05-05 14:35 | 43.08848 | -112.07237 | 32881 ft | 419 kts | 16° |
| 2026-05-05 14:35 | 43.14398 | -112.04845 | 32887 ft | 418 kts | 16° |
| 2026-05-05 14:36 | 43.19932 | -112.02441 | 32908 ft | 416 kts | 16° |
| 2026-05-05 14:36 | 43.25451 | -112.00038 | 32935 ft | 415 kts | 15° |
| 2026-05-05 14:37 | 43.30957 | -111.97659 | 32947 ft | 414 kts | 15° |
| 2026-05-05 14:37 | 43.36436 | -111.95259 | 32969 ft | 413 kts | 15° |
| 2026-05-05 14:38 | 43.41874 | -111.92893 | 32978 ft | 412 kts | 15° |
| 2026-05-05 14:38 | 43.47337 | -111.90508 | 32984 ft | 411 kts | 15° |
| 2026-05-05 14:39 | 43.52782 | -111.88121 | 32979 ft | 410 kts | 15° |
| 2026-05-05 14:39 | 43.58209 | -111.85742 | 32975 ft | 409 kts | 15° |
| 2026-05-05 14:40 | 43.63623 | -111.83361 | 32960 ft | 407 kts | 15° |
| 2026-05-05 14:40 | 43.68981 | -111.80997 | 32977 ft | 406 kts | 15° |
| 2026-05-05 14:41 | 43.74359 | -111.78625 | 32993 ft | 405 kts | 15° |
| 2026-05-05 14:41 | 43.79722 | -111.76257 | 32991 ft | 404 kts | 15° |
| 2026-05-05 14:42 | 43.85078 | -111.73881 | 32995 ft | 403 kts | 15° |
| 2026-05-05 14:42 | 43.90421 | -111.71512 | 32992 ft | 402 kts | 15° |
| 2026-05-05 14:43 | 43.95701 | -111.69167 | 32976 ft | 401 kts | 15° |
| 2026-05-05 14:43 | 44.00996 | -111.66764 | 32965 ft | 400 kts | 17° |
| 2026-05-05 14:44 | 44.06149 | -111.63798 | 32955 ft | 401 kts | 20° |
| 2026-05-05 14:44 | 44.11211 | -111.60553 | 32940 ft | 400 kts | 20° |
| 2026-05-05 14:45 | 44.16279 | -111.57311 | 32938 ft | 399 kts | 20° |
| 2026-05-05 14:45 | 44.21304 | -111.54163 | 32942 ft | 398 kts | 20° |
| 2026-05-05 14:46 | 44.26356 | -111.50978 | 32944 ft | 397 kts | 20° |
| 2026-05-05 14:46 | 44.31386 | -111.47786 | 32955 ft | 397 kts | 20° |
| 2026-05-05 14:47 | 44.36411 | -111.44608 | 32959 ft | 396 kts | 20° |
| 2026-05-05 14:47 | 44.41399 | -111.41452 | 32968 ft | 395 kts | 20° |
| 2026-05-05 14:48 | 44.46403 | -111.38258 | 32992 ft | 395 kts | 20° |
| 2026-05-05 14:48 | 44.51465 | -111.35055 | 32383 ft | 408 kts | 20° |
| 2026-05-05 14:49 | 44.54069 | -111.33394 | 31884 ft | 414 kts | 20° |
| 2026-05-05 14:49 | 44.56704 | -111.31709 | 31394 ft | 419 kts | 20° |
| 2026-05-05 14:49 | 44.59380 | -111.30003 | 30913 ft | 424 kts | 20° |
| 2026-05-05 14:49 | 44.62081 | -111.28284 | 30437 ft | 428 kts | 20° |
| 2026-05-05 14:50 | 44.64814 | -111.26530 | 29948 ft | 432 kts | 20° |
| 2026-05-05 14:50 | 44.67488 | -111.24800 | 29407 ft | 422 kts | 20° |
| 2026-05-05 14:50 | 44.70123 | -111.23100 | 28865 ft | 412 kts | 20° |
| 2026-05-05 14:50 | 44.72712 | -111.21440 | 28315 ft | 404 kts | 19° |
| 2026-05-05 14:51 | 44.75257 | -111.19813 | 27781 ft | 399 kts | 19° |
| 2026-05-05 14:51 | 44.77745 | -111.18218 | 27258 ft | 388 kts | 19° |
| 2026-05-05 14:51 | 44.80168 | -111.16653 | 26733 ft | 379 kts | 19° |
| 2026-05-05 14:51 | 44.82528 | -111.15126 | 26212 ft | 371 kts | 19° |
| 2026-05-05 14:52 | 44.84855 | -111.13626 | 25698 ft | 365 kts | 19° |
| 2026-05-05 14:52 | 44.87145 | -111.12163 | 25206 ft | 359 kts | 18° |
| 2026-05-05 14:52 | 44.89406 | -111.10703 | 24721 ft | 355 kts | 19° |
| 2026-05-05 14:52 | 44.91642 | -111.09247 | 24247 ft | 352 kts | 18° |
| 2026-05-05 14:53 | 44.93831 | -111.07832 | 23789 ft | 349 kts | 18° |
| 2026-05-05 14:53 | 44.96064 | -111.06388 | 23275 ft | 347 kts | 18° |
| 2026-05-05 14:53 | 44.98229 | -111.04989 | 22719 ft | 346 kts | 18° |
| 2026-05-05 14:53 | 45.00411 | -111.03573 | 22171 ft | 344 kts | 18° |
| 2026-05-05 14:54 | 45.02582 | -111.02170 | 21656 ft | 342 kts | 18° |
| 2026-05-05 14:54 | 45.04741 | -111.00775 | 21104 ft | 340 kts | 18° |
| 2026-05-05 14:54 | 45.06886 | -110.99358 | 20612 ft | 339 kts | 18° |
| 2026-05-05 14:54 | 45.09021 | -110.97963 | 20117 ft | 338 kts | 18° |
| 2026-05-05 14:55 | 45.11159 | -110.96620 | 19635 ft | 332 kts | 12° |
| 2026-05-05 14:55 | 45.13382 | -110.96201 | 19216 ft | 319 kts | 355° |
| 2026-05-05 14:55 | 45.15590 | -110.96203 | 18777 ft | 317 kts | 353° |
| 2026-05-05 14:55 | 45.17773 | -110.96449 | 18319 ft | 312 kts | 346° |
| 2026-05-05 14:56 | 45.19860 | -110.97050 | 17782 ft | 309 kts | 342° |
| 2026-05-05 14:56 | 45.21958 | -110.97803 | 17376 ft | 304 kts | 341° |
| 2026-05-05 14:56 | 45.23944 | -110.98542 | 17204 ft | 294 kts | 341° |
| 2026-05-05 14:56 | 45.25885 | -110.99259 | 17110 ft | 282 kts | 342° |
| 2026-05-05 14:57 | 45.27754 | -110.99901 | 17121 ft | 270 kts | 342° |
| 2026-05-05 14:57 | 45.29554 | -111.00507 | 17098 ft | 261 kts | 342° |
| 2026-05-05 14:57 | 45.31322 | -111.01091 | 17063 ft | 262 kts | 342° |
| 2026-05-05 14:57 | 45.33104 | -111.01689 | 17047 ft | 264 kts | 342° |
| 2026-05-05 14:58 | 45.34898 | -111.02283 | 17052 ft | 266 kts | 342° |
| 2026-05-05 14:58 | 45.36699 | -111.02884 | 17106 ft | 265 kts | 342° |
| 2026-05-05 14:58 | 45.38460 | -111.03474 | 17099 ft | 256 kts | 342° |
| 2026-05-05 14:58 | 45.40223 | -111.04069 | 16526 ft | 266 kts | 343° |
| 2026-05-05 14:59 | 45.42051 | -111.04688 | 15976 ft | 273 kts | 343° |
| 2026-05-05 14:59 | 45.43922 | -111.05326 | 15424 ft | 279 kts | 344° |
| 2026-05-05 14:59 | 45.45806 | -111.05970 | 14882 ft | 284 kts | 345° |
| 2026-05-05 14:59 | 45.47750 | -111.06625 | 14365 ft | 289 kts | 345° |
| 2026-05-05 15:00 | 45.49723 | -111.07286 | 13823 ft | 293 kts | 346° |
| 2026-05-05 15:00 | 45.51068 | -111.07739 | 13498 ft | 293 kts | 346° |
| 2026-05-05 15:00 | 45.53660 | -111.08610 | 13205 ft | 284 kts | 346° |
| 2026-05-05 15:00 | 45.55557 | -111.09255 | 13077 ft | 275 kts | 346° |
| 2026-05-05 15:01 | 45.57391 | -111.09882 | 13034 ft | 265 kts | 347° |
| 2026-05-05 15:01 | 45.59184 | -111.10474 | 13012 ft | 264 kts | 346° |
| 2026-05-05 15:01 | 45.60974 | -111.11054 | 13004 ft | 265 kts | 346° |
| 2026-05-05 15:01 | 45.62761 | -111.11778 | 12916 ft | 271 kts | 334° |
| 2026-05-05 15:02 | 45.64242 | -111.13442 | 12806 ft | 279 kts | 317° |
| 2026-05-05 15:02 | 45.65633 | -111.15432 | 12692 ft | 286 kts | 315° |
| 2026-05-05 15:02 | 45.67024 | -111.17498 | 12511 ft | 287 kts | 315° |
| 2026-05-05 15:02 | 45.68389 | -111.19554 | 12274 ft | 282 kts | 315° |
| 2026-05-05 15:03 | 45.69719 | -111.21580 | 12061 ft | 277 kts | 314° |
| 2026-05-05 15:03 | 45.71025 | -111.23582 | 11827 ft | 273 kts | 314° |
| 2026-05-05 15:03 | 45.72309 | -111.25561 | 11533 ft | 272 kts | 314° |
| 2026-05-05 15:03 | 45.73609 | -111.27568 | 11040 ft | 278 kts | 314° |
| 2026-05-05 15:04 | 45.74943 | -111.29605 | 10540 ft | 283 kts | 314° |
| 2026-05-05 15:04 | 45.76300 | -111.31679 | 10074 ft | 286 kts | 314° |
| 2026-05-05 15:04 | 45.77673 | -111.33772 | 9562 ft | 289 kts | 314° |
| 2026-05-05 15:04 | 45.79035 | -111.35855 | 9027 ft | 291 kts | 314° |
| 2026-05-05 15:05 | 45.81792 | -111.40118 | 8026 ft | 292 kts | 314° |
| 2026-05-05 15:05 | 45.83161 | -111.42268 | 7587 ft | 290 kts | 314° |
| 2026-05-05 15:05 | 45.84497 | -111.44374 | 7365 ft | 280 kts | 316° |
| 2026-05-05 15:06 | 45.86063 | -111.45801 | 7257 ft | 259 kts | 348° |
| 2026-05-05 15:06 | 45.87765 | -111.45638 | 7230 ft | 241 kts | 25° |
| 2026-05-05 15:06 | 45.88943 | -111.44083 | 7239 ft | 228 kts | 62° |
| 2026-05-05 15:06 | 45.89468 | -111.42067 | 7251 ft | 205 kts | 73° |
| 2026-05-05 15:07 | 45.89333 | -111.40101 | 7222 ft | 210 kts | 115° |
| 2026-05-05 15:07 | 45.88198 | -111.38666 | 7241 ft | 230 kts | 151° |
| 2026-05-05 15:07 | 45.86892 | -111.37330 | 7112 ft | 242 kts | 124° |
| 2026-05-05 15:07 | 45.86345 | -111.35046 | 6842 ft | 242 kts | 89° |
| 2026-05-05 15:08 | 45.86527 | -111.32741 | 6600 ft | 224 kts | 79° |
| 2026-05-05 15:08 | 45.86695 | -111.30598 | 6468 ft | 203 kts | 83° |
| 2026-05-05 15:08 | 45.86693 | -111.28747 | 6389 ft | 175 kts | 94° |
| 2026-05-05 15:08 | 45.86464 | -111.27151 | 6355 ft | 152 kts | 101° |
| 2026-05-05 15:09 | 45.85894 | -111.25994 | 6271 ft | 138 kts | 139° |
| 2026-05-05 15:09 | 45.85124 | -111.25110 | 6311 ft | 147 kts | 136° |
| 2026-05-05 15:09 | 45.84303 | -111.24110 | 6117 ft | 155 kts | 135° |
| 2026-05-05 15:09 | 45.83507 | -111.23120 | 5814 ft | 146 kts | 134° |
| 2026-05-05 15:10 | 45.82748 | -111.22103 | 5571 ft | 153 kts | 133° |
| 2026-05-05 15:10 | 45.81966 | -111.21020 | 5379 ft | 158 kts | 133° |
| 2026-05-05 15:10 | 45.81181 | -111.19924 | 5153 ft | 159 kts | 134° |
| 2026-05-05 15:10 | 45.80416 | -111.18846 | 4925 ft | 151 kts | 134° |
| 2026-05-05 15:11 | 45.79642 | -111.17787 | 4672 ft | 161 kts | 136° |
| 2026-05-05 15:11 | 45.78837 | -111.16682 | 4493 ft | 156 kts | 135° |
| 2026-05-05 15:11 | 45.78089 | -111.15652 | 4451 ft | 141 kts | 135° |
| 2026-05-05 15:11 | 45.77520 | -111.14857 | 4445 ft | 54 kts | 136° |
| 2026-05-05 15:12 | 45.77382 | -111.14670 | 4445 ft | 25 kts | 141° |
| 2026-05-05 15:12 | 45.77273 | -111.14693 | 4443 ft | 18 kts | 224° |
| 2026-05-05 15:12 | 45.77218 | -111.14830 | 4444 ft | 16 kts | 291° |
| 2026-05-05 15:12 | 45.77291 | -111.14949 | 4444 ft | 16 kts | 316° |
| 2026-05-05 15:13 | 45.77371 | -111.15059 | 4444 ft | 16 kts | 317° |
| 2026-05-05 15:13 | 45.77452 | -111.15167 | 4444 ft | 16 kts | 317° |
| 2026-05-05 15:13 | 45.77530 | -111.15277 | 4444 ft | 16 kts | 314° |
| 2026-05-05 15:13 | 45.77608 | -111.15385 | 4444 ft | 16 kts | 316° |
| 2026-05-05 15:14 | 45.77686 | -111.15494 | 4444 ft | 16 kts | 315° |
| 2026-05-05 15:14 | 45.77763 | -111.15602 | 4444 ft | 16 kts | 315° |
| 2026-05-05 15:14 | 45.77835 | -111.15710 | 4444 ft | 11 kts | 292° |
| 2026-05-05 15:14 | 45.77815 | -111.15793 | 4444 ft | 9 kts | 249° |
| 2026-05-05 15:15 | 45.77839 | -111.15886 | 4444 ft | 12 kts | 313° |
| 2026-05-05 15:15 | 45.77868 | -111.15962 | 4444 ft | 6 kts | 242° |
| 2026-05-05 15:15 | 45.77849 | -111.16004 | 4444 ft | 5 kts | 231° |
| 2026-05-05 15:15 | 45.77848 | -111.16006 | 4444 ft | 0 kts | 232° |